Ashland, WV

10:35 AM EST on March 02, 2015 (GMT -0500)
185 Beeson rd | Change Station
CLOSE
Current Station
Personal Weather Station
Location: Lashmeet, WV
Elevation: 2513 ft
Nearby Weather Stations

Elev 2513 ft 37.42 °N, 81.20 °W | Updated 5 seconds ago

Overcast
Overcast
32.4 °F
Feels Like 25 °F
N
8.0
Wind Variable Wind from NE
Gusts 8.0 mph

Today
High -- | Low -- °F
--% Chance of Precip.
Yesterday
High -- | Low -- °F
Precip. -- in
6:55 AM 6:20 PM
Waxing Gibbous, 92% visible
Pressure 30.35 in
Visibility 8.0 miles
Clouds Mostly Cloudy 400 ft
Overcast 1000 ft
Windchill 25 °F
Dew Point 30 °F
Humidity 91%
Rainfall 0.18 in
Snow Depth Not available.
UV 1 out of 12
Pollen 1.60 out of 12
Air Quality Not available.
Flu Activity Not available.
SPECI KBLF 021521Z AUTO 30010G17KT 8SM BKN004 OVC010 00/M03 A3035 RMK AO2 T00001028

More Conditions Fewer Conditions

Pressure 30.35 in
Visibility 8.0 miles
Clouds Mostly Cloudy 400 ft
Overcast 1000 ft
Windchill 25 °F
Dew Point 30 °F
Humidity 91%
Rainfall 0.18 in
Snow Depth Not available.
UV 1 out of 12
Pollen 1.60 out of 12
Air Quality Not available.
Flu Activity Not available.
SPECI KBLF 021521Z AUTO 30010G17KT 8SM BKN004 OVC010 00/M03 A3035 RMK AO2 T00001028

More Conditions Fewer Conditions

10-Day Weather Forecast

Almanac

Astronomy

Mar. 02, 2015 Rise Set
Actual Time
Civil Twilight
Nautical Twilight
Astronomical Twilight
Moon
Length of Visible Light
Length of Day
Tomorrow will be .
, % of the Moon is Illuminated

Today's Extremes

State Highs State Lows

Community

WunderPhotos

Upload Photos

1,801,821 photos uploaded!

WunderBlogs® & News

Nearby

Air Quality

  Air Quality AQ Index Pollutant
Not available.

Snow Depth

Station Depth Elevation

Earthquake Activity

City Distance Mag. Time & Date
Minimum magnitude displayed is 2.5.

Coastal Water Temperatures

Place Temperature

Nearby Weather Stations